Alna, Maine
Current Conditions -  °F | °C
As of 1:53 AM on Wednesday 28 Jan 2015 (Local Time) from KIWI Reporting Station
Light Snow Light Snow  
Wind Chill:   Ceiling: 1400
Heat Index: 13°   Visibility: 1.2mi
Dew Point:   Wind: 7mph
Humidity: 81%   Direction: NA
Pressure: 29.63"   Gusts: 22mph
Location:  44.11°N, 69.6°W
Report Text: KIWI 280653Z AUTO VRB06G19KT 1 1/4SM -SN OVC014 M11/M13 A2963 RMK AO2 SLP035 P0000 T11061133
Loading
Personal Weather Stations






























Interactive Weather Map New forecast layout! Learn more

10-Day Weather Forecast

Advertisements
Track Severe Weather on mobile